createdAt,value
2022-09-14T00:01:26.506Z,29.10
2022-09-14T00:04:05.461Z,28.23
2022-09-14T00:06:33.584Z,29.92
2022-09-14T00:09:01.423Z,31.48
2022-09-14T00:11:32.113Z,31.27
2022-09-14T00:14:01.341Z,32.40
2022-09-14T00:16:31.088Z,31.88
2022-09-14T00:19:01.104Z,29.40
2022-09-14T00:21:29.149Z,34.13
2022-09-14T00:23:56.370Z,30.45
2022-09-14T00:26:23.984Z,31.92
2022-09-14T00:28:56.697Z,30.40
2022-09-14T00:31:25.890Z,33.70
2022-09-14T00:33:53.787Z,28.98
2022-09-14T00:36:27.183Z,28.42
2022-09-14T00:38:56.872Z,30.65
2022-09-14T00:41:27.460Z,25.80
2022-09-14T00:44:15.653Z,28.38
2022-09-14T00:46:46.562Z,26.38
2022-09-14T00:49:31.321Z,26.75
2022-09-14T00:52:16.554Z,22.23
2022-09-14T00:54:49.894Z,24.88
2022-09-14T00:57:18.544Z,28.58
2022-09-14T00:59:48.600Z,25.17
2022-09-14T01:02:16.331Z,24.60
2022-09-14T01:04:44.730Z,25.98
2022-09-14T01:07:33.043Z,25.50
2022-09-14T01:10:22.037Z,30.05
2022-09-14T01:13:07.997Z,28.45
2022-09-14T01:15:53.990Z,29.00
2022-09-14T01:18:46.336Z,31.65
2022-09-14T01:21:21.971Z,35.95
2022-09-14T01:23:58.207Z,34.60
2022-09-14T01:26:37.080Z,34.78
2022-09-14T01:29:19.184Z,32.60
2022-09-14T01:32:07.222Z,33.13
2022-09-14T01:34:46.613Z,32.05
2022-09-14T01:37:19.721Z,29.27
2022-09-14T01:39:54.408Z,29.80
2022-09-14T01:42:26.472Z,32.65
2022-09-14T01:44:59.274Z,33.97
2022-09-14T01:47:40.460Z,28.33
2022-09-14T01:50:34.253Z,28.60
2022-09-14T01:53:20.363Z,27.80
2022-09-14T01:56:11.133Z,32.45
2022-09-14T01:58:45.523Z,33.03
2022-09-14T02:01:19.343Z,29.63
2022-09-14T02:03:54.760Z,33.03
2022-09-14T02:06:34.614Z,28.65
2022-09-14T02:09:03.350Z,31.83
2022-09-14T02:11:30.327Z,26.23
2022-09-14T02:13:57.531Z,27.88
2022-09-14T02:16:26.170Z,29.05
2022-09-14T02:18:53.856Z,31.98
2022-09-14T02:21:25.798Z,26.10
2022-09-14T02:23:54.059Z,27.50
2022-09-14T02:26:23.240Z,27.38
2022-09-14T02:28:50.956Z,30.92
2022-09-14T02:31:57.905Z,28.90
2022-09-14T02:34:32.833Z,26.90
2022-09-14T02:37:22.517Z,28.60
2022-09-14T02:40:06.890Z,25.70
2022-09-14T02:42:35.006Z,23.13
2022-09-14T02:45:06.243Z,26.17
2022-09-14T02:47:55.955Z,31.33
2022-09-14T02:50:26.003Z,28.50
2022-09-14T02:53:38.398Z,32.75
2022-09-14T02:56:09.092Z,26.67
2022-09-14T02:58:40.909Z,29.55
2022-09-14T03:01:09.985Z,33.63
2022-09-14T03:03:37.482Z,27.38
2022-09-14T03:06:05.893Z,26.55
2022-09-14T03:08:33.572Z,22.45
2022-09-14T03:11:00.592Z,26.00
2022-09-14T03:13:28.141Z,20.90
2022-09-14T03:15:55.308Z,24.80
2022-09-14T03:18:22.463Z,27.90
2022-09-14T03:20:49.540Z,24.45
2022-09-14T03:23:16.533Z,26.60
2022-09-14T03:25:45.229Z,26.25
2022-09-14T03:28:13.552Z,26.80
2022-09-14T03:30:40.747Z,27.00
2022-09-14T03:33:07.910Z,21.55
2022-09-14T03:35:35.209Z,21.27
2022-09-14T03:38:03.473Z,26.30
2022-09-14T03:40:31.309Z,26.85
2022-09-14T03:42:58.699Z,27.77
2022-09-14T03:45:25.990Z,22.38
2022-09-14T03:47:53.001Z,26.55
2022-09-14T03:50:20.367Z,21.85
2022-09-14T03:52:47.937Z,22.73
2022-09-14T03:55:15.620Z,21.02
2022-09-14T03:57:42.691Z,22.70
2022-09-14T04:00:11.535Z,19.70
2022-09-14T04:02:39.476Z,21.67
2022-09-14T04:05:07.322Z,20.58
2022-09-14T04:07:34.342Z,20.58
2022-09-14T04:10:01.471Z,19.08
2022-09-14T04:12:28.612Z,19.17
2022-09-14T04:14:55.701Z,21.23
2022-09-14T04:17:25.392Z,19.55
2022-09-14T04:19:52.590Z,20.20
2022-09-14T04:22:19.630Z,15.90
2022-09-14T04:24:46.660Z,15.55
2022-09-14T04:27:13.769Z,17.42
2022-09-14T04:29:40.870Z,18.23
2022-09-14T04:32:07.996Z,16.98
2022-09-14T04:34:35.872Z,20.75
2022-09-14T04:37:02.915Z,18.25
2022-09-14T04:39:30.521Z,18.48
2022-09-14T04:41:57.764Z,20.35
2022-09-14T04:44:24.959Z,17.17
2022-09-14T04:46:52.673Z,21.38
2022-09-14T04:49:21.842Z,19.50
2022-09-14T04:51:49.302Z,20.90
2022-09-14T04:54:18.062Z,18.60
2022-09-14T04:56:45.596Z,18.65
2022-09-14T04:59:12.879Z,20.90
2022-09-14T05:01:43.015Z,19.52
2022-09-14T05:04:12.154Z,19.40
2022-09-14T05:06:41.620Z,16.40
2022-09-14T05:09:16.222Z,16.27
2022-09-14T05:11:43.791Z,16.98
2022-09-14T05:14:14.883Z,18.42
2022-09-14T05:16:43.812Z,15.00
2022-09-14T05:19:17.255Z,15.55
2022-09-14T05:21:45.751Z,15.57
2022-09-14T05:24:15.666Z,16.10
2022-09-14T05:26:44.241Z,11.70
2022-09-14T05:29:17.255Z,13.05
2022-09-14T05:31:45.258Z,15.55
2022-09-14T05:34:12.917Z,10.60
2022-09-14T05:36:40.736Z,12.45
2022-09-14T05:39:08.419Z,13.30
2022-09-14T05:41:36.049Z,10.57
2022-09-14T05:44:03.320Z,15.00
2022-09-14T05:46:30.587Z,12.05
2022-09-14T05:48:58.072Z,12.18
2022-09-14T05:51:27.131Z,14.25
2022-09-14T05:53:56.980Z,9.88
2022-09-14T05:56:26.092Z,8.43
2022-09-14T05:58:53.966Z,9.45
2022-09-14T06:01:22.718Z,12.18
2022-09-14T06:03:51.066Z,10.13
2022-09-14T06:06:19.841Z,13.05
2022-09-14T06:08:50.509Z,7.32
2022-09-14T06:11:20.680Z,10.38
2022-09-14T06:13:48.756Z,12.23
2022-09-14T06:16:18.312Z,8.52
2022-09-14T06:18:46.762Z,13.37
2022-09-14T06:21:16.876Z,8.27
2022-09-14T06:23:44.629Z,10.25
2022-09-14T06:26:12.332Z,9.57
2022-09-14T06:28:39.920Z,12.18
2022-09-14T06:31:10.295Z,9.80
2022-09-14T06:36:12.475Z,7.85
2022-09-14T06:38:41.174Z,10.52
2022-09-14T06:41:10.407Z,10.07
2022-09-14T06:43:39.346Z,8.07
2022-09-14T06:46:07.817Z,11.88
2022-09-14T06:48:38.535Z,8.02
2022-09-14T06:51:31.879Z,12.20
2022-09-14T06:54:00.473Z,9.13
2022-09-14T06:56:29.399Z,9.30
2022-09-14T06:58:58.376Z,8.60
2022-09-14T07:01:27.153Z,7.13
2022-09-14T07:03:54.759Z,7.03
2022-09-14T07:06:39.190Z,8.35
2022-09-14T07:09:06.304Z,7.00
2022-09-14T07:11:33.533Z,11.30
2022-09-14T07:14:02.122Z,10.25
2022-09-14T07:16:32.609Z,7.28
2022-09-14T07:19:04.280Z,6.38
2022-09-14T07:21:33.329Z,7.10
2022-09-14T07:24:01.090Z,6.95
2022-09-14T07:26:30.931Z,9.52
2022-09-14T07:29:11.381Z,5.70
